createdAt,value
2023-01-15T00:00:11.743Z,99363.03
2023-01-15T00:02:38.724Z,99369.47
2023-01-15T00:05:04.999Z,99366.25
2023-01-15T00:07:31.437Z,99345.81
2023-01-15T00:09:58.453Z,99351.97
2023-01-15T00:12:24.795Z,99352.81
2023-01-15T00:14:51.093Z,99339.63
2023-01-15T00:17:17.339Z,99337.22
2023-01-15T00:19:43.798Z,99332.91
2023-01-15T00:22:10.116Z,99315.97
2023-01-15T00:24:36.571Z,99316.50
2023-01-15T00:27:02.924Z,99328.88
2023-01-15T00:29:29.334Z,99319.47
2023-01-15T00:31:55.726Z,99308.72
2023-01-15T00:34:22.005Z,99309.50
2023-01-15T00:36:48.316Z,99312.47
2023-01-15T00:39:14.645Z,99311.66
2023-01-15T00:41:41.019Z,99307.38
2023-01-15T00:44:07.579Z,99294.19
2023-01-15T00:46:34.046Z,99307.91
2023-01-15T00:49:00.633Z,99292.03
2023-01-15T00:51:27.143Z,99289.88
2023-01-15T00:53:53.458Z,99281.56
2023-01-15T00:56:19.944Z,99290.69
2023-01-15T00:58:46.408Z,99276.44
2023-01-15T01:01:12.830Z,99272.69
2023-01-15T01:03:39.480Z,99270.00
2023-01-15T01:06:05.821Z,99270.25
2023-01-15T01:08:32.457Z,99275.91
2023-01-15T01:10:58.874Z,99278.06
2023-01-15T01:13:25.332Z,99277.50
2023-01-15T01:15:51.723Z,99286.38
2023-01-15T01:18:18.288Z,99272.13
2023-01-15T01:20:44.650Z,99263.53
2023-01-15T01:23:10.958Z,99274.28
2023-01-15T01:25:37.313Z,99260.03
2023-01-15T01:28:03.691Z,99245.25
2023-01-15T01:30:30.119Z,99252.53
2023-01-15T01:32:56.737Z,99242.56
2023-01-15T01:35:23.177Z,99246.06
2023-01-15T01:37:49.802Z,99254.38
2023-01-15T01:40:16.439Z,99250.88
2023-01-15T01:42:42.733Z,99244.72
2023-01-15T01:45:09.110Z,99243.13
2023-01-15T01:47:35.485Z,99239.59
2023-01-15T01:50:02.111Z,99231.81
2023-01-15T01:52:28.732Z,99239.88
2023-01-15T01:54:54.983Z,99254.13
2023-01-15T01:57:21.356Z,99243.63
2023-01-15T01:59:47.801Z,99256.81
2023-01-15T02:02:14.201Z,99247.09
2023-01-15T02:04:40.619Z,99231.00
2023-01-15T02:07:08.261Z,99230.72
2023-01-15T02:09:35.715Z,99219.72
2023-01-15T02:12:03.053Z,99214.59
2023-01-15T02:14:30.316Z,99222.66
2023-01-15T02:16:57.699Z,99220.22
2023-01-15T02:19:24.108Z,99221.88
2023-01-15T02:21:50.529Z,99219.69
2023-01-15T02:24:17.272Z,99217.00
2023-01-15T02:26:43.841Z,99218.09
2023-01-15T02:29:10.525Z,99216.19
2023-01-15T02:31:36.922Z,99202.25
2023-01-15T02:34:03.592Z,99212.72
2023-01-15T02:36:30.236Z,99204.66
2023-01-15T02:38:57.015Z,99203.84
2023-01-15T02:41:23.553Z,99203.28
2023-01-15T02:43:49.823Z,99197.66
2023-01-15T02:46:16.114Z,99205.72
2023-01-15T02:48:42.883Z,99200.59
2023-01-15T02:51:09.156Z,99204.09
2023-01-15T02:53:35.788Z,99202.75
2023-01-15T02:56:02.563Z,99210.81
2023-01-15T02:58:28.871Z,99210.81
2023-01-15T03:00:55.502Z,99208.66
2023-01-15T03:03:22.089Z,99194.97
2023-01-15T03:05:48.809Z,99193.88
2023-01-15T03:08:15.130Z,99179.91
2023-01-15T03:10:41.660Z,99180.75
2023-01-15T03:13:08.330Z,99164.06
2023-01-15T03:15:35.056Z,99168.63
2023-01-15T03:18:01.414Z,99178.31
2023-01-15T03:20:27.759Z,99167.00
2023-01-15T03:22:54.351Z,99163.53
2023-01-15T03:25:20.896Z,99159.22
2023-01-15T03:27:47.879Z,99160.03
2023-01-15T03:30:14.310Z,99146.03
2023-01-15T03:32:41.546Z,99139.88
2023-01-15T03:35:08.043Z,99134.53
2023-01-15T03:37:34.932Z,99132.09
2023-01-15T03:40:01.651Z,99131.00
2023-01-15T03:42:27.989Z,99134.50
2023-01-15T03:44:54.301Z,99131.28
2023-01-15T03:47:20.629Z,99138.53
2023-01-15T03:49:47.177Z,99133.16
2023-01-15T03:52:13.506Z,99131.56
2023-01-15T03:54:40.097Z,99132.88
2023-01-15T03:57:06.442Z,99128.31
2023-01-15T03:59:33.115Z,99132.88
2023-01-15T04:01:59.541Z,99131.00
2023-01-15T04:04:27.513Z,99132.88
2023-01-15T04:06:55.534Z,99127.50
2023-01-15T04:09:22.475Z,99127.78
2023-01-15T04:11:50.245Z,99124.28
2023-01-15T04:14:17.653Z,99132.59
2023-01-15T04:16:45.363Z,99128.06
2023-01-15T04:19:12.325Z,99125.38
2023-01-15T04:21:39.124Z,99132.88
2023-01-15T04:24:05.934Z,99124.56
2023-01-15T04:26:33.009Z,99129.13
2023-01-15T04:28:59.353Z,99123.75
2023-01-15T04:31:25.772Z,99114.06
2023-01-15T04:33:52.256Z,99108.69
2023-01-15T04:36:18.513Z,99113.28
2023-01-15T04:38:45.270Z,99109.78
2023-01-15T04:41:11.581Z,99102.81
2023-01-15T04:43:38.265Z,99101.97
2023-01-15T04:46:04.616Z,99095.81
2023-01-15T04:48:30.943Z,99100.63
2023-01-15T04:50:57.328Z,99096.09
2023-01-15T04:53:23.955Z,99090.97
2023-01-15T04:55:50.273Z,99089.38
2023-01-15T04:58:17.254Z,99081.31
2023-01-15T05:00:43.678Z,99078.63
2023-01-15T05:03:09.942Z,99080.25
2023-01-15T05:05:36.863Z,99079.41
2023-01-15T05:08:03.584Z,99076.75
2023-01-15T05:10:29.949Z,99070.84
2023-01-15T05:12:56.603Z,99067.34
2023-01-15T05:15:23.034Z,99076.22
2023-01-15T05:17:49.516Z,99072.44
2023-01-15T05:20:16.282Z,99076.22
2023-01-15T05:22:42.887Z,99068.41
2023-01-15T05:25:09.464Z,99067.34
2023-01-15T05:27:36.207Z,99067.59
2023-01-15T05:30:02.740Z,99078.34
2023-01-15T05:32:29.606Z,99074.88
2023-01-15T05:34:56.402Z,99067.84
2023-01-15T05:37:22.772Z,99068.94
2023-01-15T05:39:49.046Z,99074.31
2023-01-15T05:42:15.381Z,99082.38
2023-01-15T05:44:41.749Z,99086.13
2023-01-15T05:47:08.158Z,99104.91
2023-01-15T05:49:34.783Z,99128.00
2023-01-15T05:52:01.876Z,99162.38
2023-01-15T05:54:28.497Z,99163.16
2023-01-15T05:56:54.971Z,99156.44
2023-01-15T05:59:21.541Z,99165.59
2023-01-15T06:01:48.287Z,99176.06
2023-01-15T06:04:15.011Z,99194.59
2023-01-15T06:06:41.829Z,99205.59
2023-01-15T06:09:08.337Z,99206.41
2023-01-15T06:11:35.110Z,99215.50
2023-01-15T06:14:01.478Z,99218.50
2023-01-15T06:16:27.812Z,99225.72
2023-01-15T06:18:54.161Z,99233.78
2023-01-15T06:21:20.828Z,99228.41
2023-01-15T06:23:47.305Z,99239.16
2023-01-15T06:26:13.808Z,99243.94
2023-01-15T06:28:40.155Z,99244.78
2023-01-15T06:31:06.574Z,99243.94
2023-01-15T06:33:33.445Z,99249.59
2023-01-15T06:35:59.991Z,99257.38
2023-01-15T06:38:26.682Z,99268.09
2023-01-15T06:40:52.957Z,99272.94
2023-01-15T06:43:19.727Z,99279.38
2023-01-15T06:45:46.166Z,99276.72
2023-01-15T06:48:13.178Z,99287.69
2023-01-15T06:50:39.523Z,99289.56
2023-01-15T06:53:06.031Z,99296.81
2023-01-15T06:55:32.350Z,99298.91
2023-01-15T06:57:59.112Z,99294.41
2023-01-15T07:00:25.995Z,99301.59
2023-01-15T07:02:52.524Z,99305.13
2023-01-15T07:05:18.891Z,99305.34
2023-01-15T07:07:45.606Z,99303.75
2023-01-15T07:10:12.404Z,99302.94
2023-01-15T07:12:38.789Z,99315.56
2023-01-15T07:15:05.367Z,99310.97
2023-01-15T07:17:31.923Z,99321.97
2023-01-15T07:19:58.516Z,99310.69
2023-01-15T07:22:24.868Z,99313.13
2023-01-15T07:24:51.189Z,99321.44
2023-01-15T07:27:17.975Z,99322.22
2023-01-15T07:29:44.326Z,99314.47
2023-01-15T07:32:10.633Z,99319.00
2023-01-15T07:34:37.217Z,99325.19
2023-01-15T07:37:03.583Z,99322.75
2023-01-15T07:39:29.842Z,99338.03
2023-01-15T07:41:56.226Z,99326.50
2023-01-15T07:44:22.520Z,99318.44
2023-01-15T07:46:48.842Z,99332.13
2023-01-15T07:49:15.242Z,99344.50
2023-01-15T07:51:41.628Z,99354.66
2023-01-15T07:54:08.312Z,99361.91
2023-01-15T07:56:34.669Z,99369.16
2023-01-15T07:59:01.625Z,99355.97
2023-01-15T08:01:28.631Z,99365.66
2023-01-15T08:03:55.615Z,99363.00
2023-01-15T08:06:22.918Z,99354.94
2023-01-15T08:08:49.689Z,99367.53
2023-01-15T08:11:16.530Z,99368.34
2023-01-15T08:13:42.784Z,99379.09
2023-01-15T08:16:09.875Z,99369.41
2023-01-15T08:18:36.306Z,99374.75
2023-01-15T08:21:02.656Z,99366.97
2023-01-15T08:23:29.020Z,99382.03
2023-01-15T08:25:55.317Z,99382.81
2023-01-15T08:28:22.461Z,99388.72
2023-01-15T08:30:49.015Z,99388.72
2023-01-15T08:33:15.637Z,99393.00
2023-01-15T08:35:42.205Z,99389.75
2023-01-15T08:38:08.759Z,99387.06
2023-01-15T08:40:35.021Z,99391.66
2023-01-15T08:43:01.423Z,99381.16
2023-01-15T08:45:27.801Z,99374.72
2023-01-15T08:47:54.119Z,99364.00
2023-01-15T08:50:20.994Z,99372.03
2023-01-15T08:52:47.414Z,99380.09
2023-01-15T08:55:14.184Z,99374.19
2023-01-15T08:57:40.528Z,99373.91
2023-01-15T09:00:07.022Z,99362.63
2023-01-15T09:02:33.723Z,99367.19
2023-01-15T09:05:00.438Z,99354.03
2023-01-15T09:07:27.262Z,99359.41
2023-01-15T09:09:53.604Z,99355.91
2023-01-15T09:12:20.074Z,99344.09
2023-01-15T09:14:58.773Z,99337.13
2023-01-15T09:17:29.319Z,99351.38
2023-01-15T09:19:56.058Z,99340.88
2023-01-15T09:22:22.778Z,99341.41
2023-01-15T09:24:50.313Z,99354.84
2023-01-15T09:27:17.330Z,99357.78
2023-01-15T09:29:43.639Z,99356.97
2023-01-15T09:32:10.559Z,99361.28
2023-01-15T09:34:37.357Z,99368.25
2023-01-15T09:37:03.656Z,99365.81
2023-01-15T09:39:30.538Z,99373.06
2023-01-15T09:41:57.903Z,99381.91
2023-01-15T09:44:24.642Z,99386.50
2023-01-15T09:46:51.509Z,99384.06
2023-01-15T09:49:17.875Z,99380.81
2023-01-15T09:51:44.234Z,99389.13
2023-01-15T09:54:10.592Z,99382.13
2023-01-15T09:56:37.501Z,99374.91
2023-01-15T09:59:04.462Z,99370.63
2023-01-15T10:01:30.885Z,99380.53
2023-01-15T10:03:57.401Z,99386.72
2023-01-15T10:06:24.137Z,99378.91
2023-01-15T10:08:50.918Z,99377.31
2023-01-15T10:11:17.766Z,99375.41
2023-01-15T10:13:44.453Z,99394.19
2023-01-15T10:16:10.815Z,99406.81
2023-01-15T10:18:37.337Z,99404.38
2023-01-15T10:21:03.999Z,99414.53
2023-01-15T10:23:30.272Z,99402.72
2023-01-15T10:25:56.631Z,99402.47
2023-01-15T10:28:23.221Z,99401.13
2023-01-15T10:30:50.097Z,99399.25
2023-01-15T10:33:16.678Z,99406.25
2023-01-15T10:35:42.993Z,99404.88
2023-01-15T10:40:48.183Z,99388.25
2023-01-15T10:43:14.692Z,99391.72
2023-01-15T10:45:41.266Z,99392.53
2023-01-15T10:48:07.680Z,99399.75
2023-01-15T10:50:34.438Z,99399.22
2023-01-15T10:53:00.719Z,99388.50
2023-01-15T10:55:27.532Z,99389.53
2023-01-15T10:58:08.953Z,99392.50
2023-01-15T11:00:36.189Z,99392.22
2023-01-15T11:03:03.155Z,99394.66
2023-01-15T11:05:29.515Z,99397.84
2023-01-15T11:08:34.409Z,99401.06
2023-01-15T11:10:42.492Z,99402.94
2023-01-15T11:13:09.225Z,99410.44
2023-01-15T11:15:35.625Z,99415.00
2023-01-15T11:18:01.994Z,99417.41
2023-01-15T11:20:28.682Z,99409.38
2023-01-15T11:22:55.096Z,99405.91
2023-01-15T11:25:21.686Z,99406.69
2023-01-15T11:27:48.018Z,99399.16
2023-01-15T11:30:14.386Z,99396.22
2023-01-15T11:32:40.896Z,99398.34
2023-01-15T11:35:07.206Z,99405.56
2023-01-15T11:37:33.954Z,99399.44
2023-01-15T11:40:00.707Z,99405.34
2023-01-15T11:42:27.715Z,99392.75
2023-01-15T11:44:54.418Z,99389.72
2023-01-15T11:47:20.977Z,99384.38
2023-01-15T11:49:47.636Z,99367.25
2023-01-15T11:52:14.046Z,99385.72
2023-01-15T11:54:40.433Z,99388.69
2023-01-15T11:57:07.379Z,99396.75
2023-01-15T11:59:35.636Z,99391.63
2023-01-15T12:02:02.896Z,99395.38
2023-01-15T12:04:29.347Z,99407.47
2023-01-15T12:06:56.203Z,99408.22
2023-01-15T12:09:23.177Z,99420.56
2023-01-15T12:11:49.456Z,99407.16
2023-01-15T12:14:15.836Z,99409.81
2023-01-15T12:16:42.164Z,99411.47
2023-01-15T12:19:08.453Z,99403.69
2023-01-15T12:21:34.925Z,99396.94
2023-01-15T12:24:01.328Z,99397.50
2023-01-15T12:26:27.820Z,99393.19
2023-01-15T12:28:54.193Z,99403.91
2023-01-15T12:31:20.990Z,99407.69
2023-01-15T12:33:47.547Z,99403.09
2023-01-15T12:36:13.869Z,99401.50
2023-01-15T12:38:40.196Z,99405.78
2023-01-15T12:41:06.550Z,99399.06
2023-01-15T12:43:33.463Z,99396.94
2023-01-15T12:45:59.854Z,99396.38
2023-01-15T12:48:26.392Z,99388.31
2023-01-15T12:50:53.014Z,99392.09
2023-01-15T12:53:19.324Z,99398.81
2023-01-15T12:55:45.703Z,99398.50
2023-01-15T12:58:12.086Z,99393.69
2023-01-15T13:00:38.414Z,99397.44
2023-01-15T13:03:05.347Z,99390.47
2023-01-15T13:05:31.642Z,99399.56
2023-01-15T13:07:58.104Z,99391.50
2023-01-15T13:10:24.524Z,99389.09
2023-01-15T13:12:50.766Z,99396.88
2023-01-15T13:15:17.194Z,99393.16
2023-01-15T13:17:43.527Z,99392.56
2023-01-15T13:20:10.393Z,99384.78
2023-01-15T13:22:37.234Z,99369.50
2023-01-15T13:25:03.891Z,99381.06
2023-01-15T13:27:30.210Z,99391.50
2023-01-15T13:29:57.638Z,99396.31
2023-01-15T13:32:24.037Z,99397.94
2023-01-15T13:34:50.896Z,99403.31
2023-01-15T13:37:17.312Z,99405.69
2023-01-15T13:39:43.675Z,99418.84
2023-01-15T13:42:10.054Z,99422.31
2023-01-15T13:44:36.856Z,99415.34
2023-01-15T13:47:03.241Z,99408.13
2023-01-15T13:49:29.798Z,99404.06
2023-01-15T13:51:56.151Z,99398.97
2023-01-15T13:54:22.506Z,99408.13
2023-01-15T13:56:49.257Z,99415.06
2023-01-15T13:59:15.641Z,99418.81
2023-01-15T14:01:42.671Z,99431.94
2023-01-15T14:04:09.671Z,99435.69
2023-01-15T14:06:36.118Z,99430.06
2023-01-15T14:09:03.026Z,99413.94
2023-01-15T14:11:29.516Z,99423.34
2023-01-15T14:13:56.274Z,99417.97
2023-01-15T14:16:22.898Z,99423.34
2023-01-15T14:18:50.277Z,99428.94
2023-01-15T14:21:17.323Z,99446.66
2023-01-15T14:23:43.982Z,99450.41
2023-01-15T14:26:10.374Z,99447.47
2023-01-15T14:28:37.178Z,99469.16
2023-01-15T14:31:03.448Z,99443.72
2023-01-15T14:33:30.168Z,99465.66
2023-01-15T14:35:56.950Z,99470.22
2023-01-15T14:38:23.683Z,99458.44
2023-01-15T14:40:50.033Z,99478.81
2023-01-15T14:43:16.287Z,99468.63
2023-01-15T14:45:42.911Z,99466.19
2023-01-15T14:48:09.726Z,99470.78
2023-01-15T14:50:36.482Z,99480.38
2023-01-15T14:53:03.165Z,99493.78
2023-01-15T14:55:29.887Z,99482.81
2023-01-15T14:57:56.251Z,99485.19
2023-01-15T15:00:22.901Z,99496.47
2023-01-15T15:02:49.668Z,99505.59
2023-01-15T15:05:16.044Z,99486.81
2023-01-15T15:07:42.617Z,99506.66
2023-01-15T15:10:08.998Z,99503.97
2023-01-15T15:12:35.719Z,99520.06
2023-01-15T15:15:02.158Z,99519.00
2023-01-15T15:17:28.682Z,99518.44
2023-01-15T15:19:55.256Z,99520.06
2023-01-15T15:22:22.110Z,99523.81
2023-01-15T15:24:48.506Z,99532.63
2023-01-15T15:27:15.182Z,99535.56
2023-01-15T15:29:41.578Z,99536.63
2023-01-15T15:32:08.153Z,99542.00
2023-01-15T15:34:34.841Z,99570.94
2023-01-15T15:37:01.626Z,99564.50
2023-01-15T15:39:28.406Z,99576.06
2023-01-15T15:41:54.880Z,99579.53
2023-01-15T15:44:21.853Z,99564.31
2023-01-15T15:46:48.972Z,99569.94
2023-01-15T15:49:15.573Z,99557.72
2023-01-15T15:51:41.916Z,99562.00
2023-01-15T15:54:08.186Z,99562.38
2023-01-15T15:56:34.902Z,99564.09
2023-01-15T15:59:01.208Z,99559.91
2023-01-15T16:01:27.864Z,99550.84
2023-01-15T16:03:54.299Z,99562.22
2023-01-15T16:06:20.815Z,99571.69
2023-01-15T16:08:47.167Z,99566.38
2023-01-15T16:11:13.929Z,99564.75
2023-01-15T16:13:40.398Z,99569.44
2023-01-15T16:16:07.015Z,99578.13
2023-01-15T16:18:33.390Z,99588.91
2023-01-15T16:20:59.761Z,99586.28
2023-01-15T16:23:26.289Z,99597.13
2023-01-15T16:25:53.073Z,99573.06
2023-01-15T16:28:19.354Z,99575.28
2023-01-15T16:30:45.693Z,99572.91
2023-01-15T16:33:12.069Z,99568.66
2023-01-15T16:35:38.972Z,99580.28
2023-01-15T16:38:05.743Z,99573.88
2023-01-15T16:40:32.042Z,99568.28
2023-01-15T16:42:58.707Z,99573.44
2023-01-15T16:45:25.060Z,99578.88
2023-01-15T16:47:52.697Z,99577.84
2023-01-15T16:50:19.012Z,99576.81
2023-01-15T16:52:45.357Z,99580.63
2023-01-15T16:55:12.117Z,99577.97
2023-01-15T16:57:38.873Z,99579.34
2023-01-15T17:00:05.232Z,99578.59
2023-01-15T17:02:31.873Z,99584.00
2023-01-15T17:04:58.688Z,99590.50
2023-01-15T17:07:25.498Z,99590.53
2023-01-15T17:09:51.728Z,99595.38
2023-01-15T17:12:18.698Z,99588.47
2023-01-15T17:14:45.288Z,99592.78
2023-01-15T17:17:11.687Z,99592.84
2023-01-15T17:19:38.416Z,99598.25
2023-01-15T17:22:04.719Z,99595.03
2023-01-15T17:24:31.727Z,99600.47
2023-01-15T17:26:58.112Z,99597.78
2023-01-15T17:29:24.437Z,99596.47
2023-01-15T17:31:50.715Z,99601.34
2023-01-15T17:34:17.443Z,99608.34
2023-01-15T17:36:44.035Z,99604.31
2023-01-15T17:39:11.387Z,99610.28
2023-01-15T17:41:38.267Z,99608.94
2023-01-15T17:44:04.551Z,99607.34
2023-01-15T17:46:31.495Z,99609.25
2023-01-15T17:48:57.894Z,99607.66
2023-01-15T17:51:24.659Z,99602.56
2023-01-15T17:53:51.319Z,99609.59
2023-01-15T17:56:17.926Z,99601.00
2023-01-15T17:58:44.246Z,99607.16
2023-01-15T18:01:11.224Z,99601.00
2023-01-15T18:03:37.871Z,99597.78
2023-01-15T18:06:04.241Z,99596.50
2023-01-15T18:08:30.620Z,99595.69
2023-01-15T18:10:56.930Z,99582.22
2023-01-15T18:13:23.215Z,99589.78
2023-01-15T18:15:50.061Z,99590.06
2023-01-15T18:18:16.717Z,99592.47
2023-01-15T18:20:43.606Z,99591.44
2023-01-15T18:23:10.893Z,99590.91
2023-01-15T18:25:37.663Z,99588.47
2023-01-15T18:28:04.270Z,99577.97
2023-01-15T18:30:30.871Z,99586.88
2023-01-15T18:33:02.917Z,99591.44
2023-01-15T18:35:35.724Z,99590.66
2023-01-15T18:40:31.799Z,99595.22
2023-01-15T18:43:02.325Z,99595.25
2023-01-15T18:45:32.940Z,99595.25
2023-01-15T18:48:06.134Z,99598.47
2023-01-15T18:50:32.869Z,99601.69
2023-01-15T19:03:41.307Z,99624.03
2023-01-15T19:08:43.524Z,99620.25
2023-01-15T19:11:10.137Z,99625.38
2023-01-15T19:13:36.793Z,99620.81
2023-01-15T19:16:03.111Z,99619.72
2023-01-15T19:18:29.466Z,99618.09
2023-01-15T19:20:55.982Z,99619.47
2023-01-15T19:23:22.265Z,99619.72
2023-01-15T19:25:49.205Z,99622.16
2023-01-15T19:28:16.602Z,99618.06
2023-01-15T19:30:43.010Z,99630.19
2023-01-15T19:33:09.388Z,99619.97
2023-01-15T19:35:35.836Z,99624.28
2023-01-15T19:38:02.370Z,99622.34
2023-01-15T19:40:29.269Z,99628.00
2023-01-15T19:42:55.532Z,99606.13
2023-01-15T19:45:22.418Z,99612.84
2023-01-15T19:47:49.276Z,99622.78
2023-01-15T19:50:15.603Z,99621.13
2023-01-15T19:52:41.885Z,99618.16
2023-01-15T19:55:08.507Z,99623.53
2023-01-15T19:57:34.793Z,99628.63
2023-01-15T20:00:01.221Z,99629.66
2023-01-15T20:02:27.624Z,99627.78
2023-01-15T20:04:53.978Z,99620.22
2023-01-15T20:07:20.262Z,99620.19
2023-01-15T20:09:47.680Z,99619.09
2023-01-15T20:12:14.526Z,99618.81
2023-01-15T20:14:41.171Z,99622.00
2023-01-15T20:17:07.763Z,99619.81
2023-01-15T20:19:34.040Z,99607.44
2023-01-15T20:22:00.640Z,99608.78
2023-01-15T20:24:27.039Z,99603.91
2023-01-15T20:26:53.336Z,99606.59
2023-01-15T20:29:19.729Z,99604.44
2023-01-15T20:31:46.448Z,99603.06
2023-01-15T20:34:12.873Z,99600.63
2023-01-15T20:36:39.126Z,99590.16
2023-01-15T20:39:05.509Z,99601.44
2023-01-15T20:41:32.434Z,99594.97
2023-01-15T20:43:59.084Z,99603.59
2023-01-15T20:46:25.848Z,99600.09
2023-01-15T20:48:52.188Z,99593.91
2023-01-15T20:51:18.752Z,99604.41
2023-01-15T20:53:45.007Z,99586.91
2023-01-15T20:56:11.538Z,99593.34
2023-01-15T20:58:37.902Z,99592.78
2023-01-15T21:01:04.795Z,99594.94
2023-01-15T21:03:31.375Z,99594.38
2023-01-15T21:05:57.777Z,99596.53
2023-01-15T21:08:24.509Z,99608.38
2023-01-15T21:10:50.840Z,99598.91
2023-01-15T21:13:17.109Z,99602.63
2023-01-15T21:15:44.166Z,99601.03
2023-01-15T21:18:10.983Z,99595.91
2023-01-15T21:20:38.282Z,99597.22
2023-01-15T21:23:04.719Z,99599.38
2023-01-15T21:25:31.129Z,99602.84
2023-01-15T21:27:57.663Z,99605.81
2023-01-15T21:30:24.016Z,99600.97
2023-01-15T21:32:50.713Z,99598.53
2023-01-15T21:35:17.376Z,99599.84
2023-01-15T21:37:43.672Z,99608.16
2023-01-15T21:40:09.960Z,99606.56
2023-01-15T21:42:36.627Z,99598.19
2023-01-15T21:45:02.868Z,99605.44
2023-01-15T21:47:29.199Z,99603.84
2023-01-15T21:49:55.795Z,99603.25
2023-01-15T21:52:22.200Z,99598.13
2023-01-15T21:54:49.161Z,99590.31
2023-01-15T21:57:15.649Z,99594.09
2023-01-15T21:59:41.953Z,99604.31
2023-01-15T22:02:08.895Z,99599.97
2023-01-15T22:04:35.359Z,99601.88
2023-01-15T22:07:01.700Z,99592.97
2023-01-15T22:09:28.017Z,99596.75
2023-01-15T22:11:54.315Z,99589.75
2023-01-15T22:14:23.481Z,99584.63
2023-01-15T22:16:49.914Z,99584.34
2023-01-15T22:19:16.343Z,99591.34
2023-01-15T22:21:42.683Z,99590.75
2023-01-15T22:24:09.057Z,99589.16
2023-01-15T22:26:35.318Z,99590.47
2023-01-15T22:29:01.898Z,99601.22
2023-01-15T22:31:28.273Z,99589.94
2023-01-15T22:33:54.747Z,99585.59
2023-01-15T22:36:21.063Z,99587.75
2023-01-15T22:38:47.699Z,99592.28
2023-01-15T22:41:14.008Z,99589.06
2023-01-15T22:43:40.613Z,99597.13
2023-01-15T22:46:07.206Z,99590.09
2023-01-15T22:48:33.670Z,99590.38
2023-01-15T22:51:00.021Z,99595.75
2023-01-15T22:53:26.517Z,99598.69
2023-01-15T22:55:52.832Z,99590.06
2023-01-15T22:58:19.382Z,99589.28
2023-01-15T23:00:46.129Z,99601.88
2023-01-15T23:03:12.695Z,99602.13
2023-01-15T23:05:40.627Z,99592.47
2023-01-15T23:08:07.471Z,99589.78
2023-01-15T23:10:33.797Z,99597.25
2023-01-15T23:13:00.096Z,99600.53
2023-01-15T23:15:26.919Z,99604.78
2023-01-15T23:17:53.693Z,99607.47
2023-01-15T23:20:20.143Z,99605.03
2023-01-15T23:22:46.585Z,99601.78
2023-01-15T23:25:13.131Z,99605.28
2023-01-15T23:27:40.197Z,99598.28
2023-01-15T23:30:06.832Z,99606.59
2023-01-15T23:32:33.264Z,99591.81
2023-01-15T23:34:59.606Z,99588.31
2023-01-15T23:37:25.974Z,99593.69
2023-01-15T23:39:52.389Z,99594.75
2023-01-15T23:42:19.214Z,99597.44
2023-01-15T23:44:45.938Z,99587.75
2023-01-15T23:47:12.403Z,99593.38
2023-01-15T23:49:38.815Z,99585.56
2023-01-15T23:52:05.107Z,99592.00
2023-01-15T23:54:31.913Z,99589.31
2023-01-15T23:56:58.290Z,99594.94
2023-01-15T23:59:24.837Z,99590.66
